Time;durP1;ratioP1;P1;durP2;ratioP2;P2;SDS_P1;SDS_P2;PMS_P1;PMS_P2;Temp;Humidity;BMP_temperature;BMP_pressure;BME280_temperature;BME280_humidity;BME280_pressure;Samples;Min_cycle;Max_cycle;Signal;HPM_P1;HPM_P2
2022/01/04 00:01:23;;;;;;;3.00;1.57;;;8.30;97.30;;;;;;5036218;28;20622;-85
2022/01/04 00:03:48;;;;;;;2.90;1.23;;;8.30;97.30;;;;;;5036316;28;20288;-85
2022/01/04 00:06:14;;;;;;;2.40;1.40;;;8.30;97.30;;;;;;5036226;28;20172;-85
2022/01/04 00:08:40;;;;;;;2.20;1.20;;;8.40;97.30;;;;;;5053675;28;20574;-84
2022/01/04 00:11:17;;;;;;;2.17;1.10;;;8.40;97.30;;;;;;5035549;28;20258;-85
2022/01/04 00:13:43;;;;;;;5.60;1.37;;;8.40;97.30;;;;;;5035508;28;20434;-84
2022/01/04 00:16:10;;;;;;;2.20;1.20;;;8.40;97.30;;;;;;5036080;28;20467;-84
2022/01/04 00:18:37;;;;;;;1.50;1.40;;;8.40;97.30;;;;;;5037857;28;20472;-85
2022/01/04 00:21:03;;;;;;;2.53;1.43;;;8.40;97.30;;;;;;5037975;28;20414;-85
2022/01/04 00:23:30;;;;;;;1.90;1.30;;;8.40;97.30;;;;;;5055809;28;20947;-82
2022/01/04 00:25:55;;;;;;;2.60;1.67;;;8.50;97.30;;;;;;5039122;28;20411;-85
2022/01/04 00:28:21;;;;;;;2.13;1.23;;;8.50;97.30;;;;;;5056675;28;20411;-84
2022/01/04 00:30:47;;;;;;;2.13;1.47;;;8.50;97.30;;;;;;5037862;28;20191;-85
2022/01/04 00:33:14;;;;;;;1.57;1.10;;;8.50;97.30;;;;;;5036832;28;20200;-85
2022/01/04 00:35:40;;;;;;;3.27;1.37;;;8.50;97.30;;;;;;5036467;28;20184;-85
2022/01/04 00:38:07;;;;;;;4.90;1.40;;;8.60;97.30;;;;;;5036865;28;20481;-85
2022/01/04 00:40:32;;;;;;;2.20;1.37;;;8.60;97.30;;;;;;5035984;28;20422;-85
2022/01/04 00:42:58;;;;;;;2.60;1.40;;;8.60;97.30;;;;;;5053500;28;20434;-85
2022/01/04 00:45:31;;;;;;;3.40;1.50;;;8.60;97.30;;;;;;5036286;28;20433;-84
2022/01/04 00:50:23;;;;;;;1.83;1.50;;;8.60;97.30;;;;;;5053629;28;20773;-85
2022/01/04 00:52:49;;;;;;;2.27;1.50;;;8.60;97.30;;;;;;5036356;28;20200;-85
2022/01/04 00:55:14;;;;;;;1.30;1.30;;;8.60;97.30;;;;;;5036507;28;20414;-84
2022/01/04 00:57:41;;;;;;;3.10;1.37;;;8.60;97.30;;;;;;5036893;28;20462;-85
2022/01/04 01:00:08;;;;;;;1.93;1.47;;;8.60;97.30;;;;;;5036124;28;20179;-85
2022/01/04 01:02:35;;;;;;;3.43;1.03;;;8.70;97.30;;;;;;5052937;28;20462;-85
2022/01/04 01:05:00;;;;;;;3.37;1.27;;;8.70;97.30;;;;;;5035956;28;20427;-85
2022/01/04 01:07:26;;;;;;;3.00;1.50;;;8.70;97.30;;;;;;5035130;28;20449;-85
2022/01/04 01:10:41;;;;;;;2.40;1.30;;;8.70;97.30;;;;;;5037413;28;20268;-85
2022/01/04 01:12:40;;;;;;;2.43;1.40;;;8.70;97.30;;;;;;5048237;28;20207;-85
2022/01/04 01:15:07;;;;;;;3.27;1.33;;;8.80;97.30;;;;;;5061694;28;20425;-84
2022/01/04 01:17:33;;;;;;;2.33;1.13;;;8.80;97.30;;;;;;5042159;28;20212;-85
2022/01/04 01:19:59;;;;;;;3.90;1.20;;;8.80;97.30;;;;;;5043118;28;20414;-85
2022/01/04 01:22:24;;;;;;;1.27;1.17;;;8.80;97.30;;;;;;5041085;28;20186;-85
2022/01/04 01:24:50;;;;;;;1.77;1.30;;;8.80;97.30;;;;;;5055081;28;20634;-85
2022/01/04 01:27:15;;;;;;;2.00;1.27;;;8.80;97.30;;;;;;5036444;28;20178;-85
2022/01/04 01:29:41;;;;;;;2.13;1.30;;;8.80;97.30;;;;;;5036495;28;20172;-85
2022/01/04 01:32:07;;;;;;;1.30;1.20;;;8.80;97.30;;;;;;5035028;28;20214;-85
2022/01/04 01:34:32;;;;;;;1.40;1.10;;;8.90;97.30;;;;;;5039763;28;20534;-85
2022/01/04 01:36:58;;;;;;;1.00;0.90;;;8.90;97.30;;;;;;5051134;28;20176;-85
2022/01/04 01:39:24;;;;;;;1.37;1.23;;;8.90;97.30;;;;;;5045924;28;20247;-85
2022/01/04 01:41:49;;;;;;;1.40;1.17;;;8.90;97.30;;;;;;5052459;28;20699;-85
2022/01/04 01:44:15;;;;;;;2.63;1.30;;;8.90;97.30;;;;;;5034914;28;20203;-84
2022/01/04 01:46:40;;;;;;;1.10;1.00;;;8.90;97.30;;;;;;5033780;28;20172;-83
2022/01/04 01:49:06;;;;;;;12.33;1.30;;;8.90;97.30;;;;;;5035260;28;20270;-85
2022/01/04 01:51:32;;;;;;;2.70;1.30;;;8.90;97.30;;;;;;5052480;28;20183;-85
2022/01/04 01:53:58;;;;;;;2.80;1.33;;;8.80;97.30;;;;;;5051817;28;20270;-84
2022/01/04 01:56:24;;;;;;;1.67;1.10;;;8.80;97.30;;;;;;5033734;28;20847;-84
2022/01/04 01:58:50;;;;;;;2.60;1.10;;;8.70;97.30;;;;;;5051588;28;20549;-85
2022/01/04 02:01:15;;;;;;;20.90;2.23;;;8.70;97.30;;;;;;5033787;28;20845;-84
2022/01/04 02:03:41;;;;;;;1.27;1.07;;;8.60;97.30;;;;;;5034533;28;20323;-85
2022/01/04 02:06:07;;;;;;;1.60;1.50;;;8.60;97.30;;;;;;5050914;28;20180;-84
2022/01/04 02:08:32;;;;;;;1.63;1.50;;;8.60;97.30;;;;;;5050501;28;20220;-85
2022/01/04 02:10:58;;;;;;;1.30;1.10;;;8.50;97.30;;;;;;5032812;28;20238;-84
2022/01/04 02:13:25;;;;;;;1.03;1.00;;;8.50;97.30;;;;;;5032680;28;20547;-85
2022/01/04 02:15:56;;;;;;;2.03;1.83;;;8.40;97.30;;;;;;5050663;28;20425;-84
2022/01/04 02:18:22;;;;;;;1.40;1.10;;;8.40;97.30;;;;;;5050792;28;20469;-84
2022/01/04 02:20:48;;;;;;;1.70;1.03;;;8.40;97.30;;;;;;5050643;28;20410;-84
2022/01/04 02:23:14;;;;;;;1.63;1.30;;;8.40;97.30;;;;;;5050499;28;20191;-84
2022/01/04 02:25:40;;;;;;;2.00;1.07;;;8.30;97.30;;;;;;5032726;28;20203;-85
2022/01/04 02:28:06;;;;;;;1.20;1.00;;;8.30;97.30;;;;;;5032964;28;20437;-85
2022/01/04 02:30:32;;;;;;;1.17;1.07;;;8.30;97.30;;;;;;5032822;28;20227;-84
2022/01/04 02:32:59;;;;;;;1.00;1.00;;;8.20;97.30;;;;;;5032631;28;20952;-84
2022/01/04 02:35:27;;;;;;;2.97;1.33;;;8.20;97.30;;;;;;5045037;28;20898;-84
2022/01/04 02:37:58;;;;;;;1.03;1.03;;;8.20;97.30;;;;;;5051116;28;20578;-84
2022/01/04 02:40:25;;;;;;;4.40;1.60;;;8.20;97.30;;;;;;5051035;28;20883;-84
2022/01/04 02:42:51;;;;;;;1.20;1.10;;;8.10;97.30;;;;;;5048640;28;20468;-84
2022/01/04 02:45:17;;;;;;;1.73;1.17;;;8.10;97.30;;;;;;5028520;28;20437;-84
2022/01/04 02:47:42;;;;;;;1.87;1.10;;;8.10;97.30;;;;;;5031296;28;20418;-84
2022/01/04 02:50:09;;;;;;;1.47;1.07;;;8.10;97.30;;;;;;5031277;28;20257;-83
2022/01/04 02:52:35;;;;;;;1.57;1.40;;;8.10;97.30;;;;;;5049105;28;20329;-84
2022/01/04 02:55:04;;;;;;;1.37;1.27;;;8.10;97.30;;;;;;5031384;28;20521;-84
2022/01/04 02:57:29;;;;;;;1.37;1.10;;;8.10;97.30;;;;;;5031127;28;20458;-84
2022/01/04 02:59:55;;;;;;;1.47;1.10;;;8.10;97.30;;;;;;5053272;28;20415;-83
2022/01/04 03:02:20;;;;;;;1.43;0.97;;;8.10;97.30;;;;;;5025564;28;20188;-84
2022/01/04 03:04:46;;;;;;;1.17;1.13;;;8.10;97.30;;;;;;5028935;28;20680;-84
2022/01/04 03:07:12;;;;;;;1.20;1.10;;;8.10;97.30;;;;;;5019094;28;20259;-82
2022/01/04 03:09:38;;;;;;;1.87;1.43;;;8.10;97.30;;;;;;5033341;28;20411;-83
2022/01/04 03:12:04;;;;;;;2.03;1.33;;;8.10;97.30;;;;;;5028372;28;20650;-84
2022/01/04 03:14:29;;;;;;;1.30;1.20;;;8.10;97.30;;;;;;5049492;28;20800;-84
2022/01/04 03:16:55;;;;;;;1.30;1.20;;;8.10;97.30;;;;;;5031628;28;20434;-84
2022/01/04 03:19:20;;;;;;;2.30;1.10;;;8.10;97.30;;;;;;5052675;28;20294;-84
2022/01/04 03:21:46;;;;;;;1.63;1.30;;;8.10;97.30;;;;;;5035474;28;20646;-84
2022/01/04 03:24:13;;;;;;;1.20;1.00;;;8.10;97.30;;;;;;5034740;28;20227;-84
2022/01/04 03:26:39;;;;;;;1.27;1.00;;;8.00;97.30;;;;;;5052833;28;20665;-84
2022/01/04 03:29:07;;;;;;;2.70;1.30;;;8.00;97.30;;;;;;5035028;28;20932;-84
2022/01/04 03:31:33;;;;;;;1.17;1.07;;;8.00;97.30;;;;;;5052922;28;20410;-84
2022/01/04 03:33:59;;;;;;;1.83;1.30;;;8.00;97.30;;;;;;5035006;28;20810;-84
2022/01/04 03:36:25;;;;;;;3.03;1.10;;;8.00;97.30;;;;;;5052947;28;20180;-84
2022/01/04 03:38:56;;;;;;;1.10;1.00;;;8.00;97.30;;;;;;5051386;28;20462;-84
2022/01/04 03:41:23;;;;;;;2.50;1.20;;;8.00;97.30;;;;;;5051321;28;20414;-85
2022/01/04 03:43:50;;;;;;;3.57;1.40;;;8.00;97.30;;;;;;5051348;28;20427;-84
2022/01/04 03:46:15;;;;;;;2.10;1.27;;;8.00;97.30;;;;;;5051047;28;20426;-84
2022/01/04 03:48:41;;;;;;;1.67;1.40;;;8.00;97.30;;;;;;5051180;28;20783;-85
2022/01/04 03:51:07;;;;;;;1.60;1.40;;;8.00;97.30;;;;;;5042833;28;20187;-84
2022/01/04 03:53:33;;;;;;;1.27;1.17;;;7.90;97.30;;;;;;5034306;28;20277;-84
2022/01/04 03:55:59;;;;;;;1.23;1.10;;;8.00;97.30;;;;;;5053029;28;20471;-84
2022/01/04 03:58:24;;;;;;;2.10;1.10;;;8.00;97.30;;;;;;5034298;28;20199;-84
2022/01/04 04:00:50;;;;;;;1.53;1.17;;;7.90;97.30;;;;;;5034253;28;20184;-84
2022/01/04 04:03:16;;;;;;;2.40;1.03;;;8.00;97.30;;;;;;5033950;28;20737;-84
2022/01/04 04:05:42;;;;;;;1.10;1.00;;;8.00;97.30;;;;;;5034175;28;20172;-84
2022/01/04 04:08:08;;;;;;;2.10;1.23;;;8.00;97.30;;;;;;5034226;28;20785;-84
2022/01/04 04:10:34;;;;;;;1.17;1.13;;;8.00;97.30;;;;;;5032814;28;20183;-84
2022/01/04 04:12:59;;;;;;;1.60;1.00;;;8.00;97.30;;;;;;5034130;28;20439;-84
2022/01/04 04:15:25;;;;;;;1.37;1.30;;;8.00;97.30;;;;;;5033921;28;20415;-84
2022/01/04 04:17:50;;;;;;;1.90;1.20;;;8.00;97.30;;;;;;5034172;28;20211;-84
2022/01/04 04:20:16;;;;;;;1.53;1.40;;;8.00;97.30;;;;;;5034426;28;20241;-84
2022/01/04 04:22:42;;;;;;;1.30;1.10;;;8.00;97.30;;;;;;5034261;28;20283;-83
2022/01/04 04:25:07;;;;;;;2.33;1.20;;;8.00;97.30;;;;;;5033802;28;20178;-84
2022/01/04 04:27:33;;;;;;;1.77;1.33;;;8.00;97.30;;;;;;5034096;28;20172;-83
2022/01/04 04:29:58;;;;;;;1.60;1.40;;;8.00;97.30;;;;;;5033899;28;20262;-84
2022/01/04 04:32:24;;;;;;;1.93;1.20;;;8.00;97.30;;;;;;5051578;28;20233;-84
2022/01/04 04:34:50;;;;;;;3.00;1.10;;;7.90;97.30;;;;;;5033660;28;20187;-84
2022/01/04 04:37:15;;;;;;;2.87;1.50;;;7.90;97.30;;;;;;5033528;28;20262;-84
2022/01/04 04:39:41;;;;;;;5.30;1.60;;;7.90;97.30;;;;;;5033729;28;20180;-84
2022/01/04 04:42:07;;;;;;;2.03;1.27;;;7.90;97.30;;;;;;5033432;28;20176;-84
2022/01/04 04:44:32;;;;;;;2.20;1.40;;;7.90;97.30;;;;;;5033245;28;20176;-84
2022/01/04 04:46:58;;;;;;;2.30;1.47;;;8.00;97.30;;;;;;5033577;28;20431;-84
2022/01/04 04:49:23;;;;;;;4.13;1.63;;;8.00;97.30;;;;;;5033169;28;20176;-84
2022/01/04 04:51:49;;;;;;;5.90;1.60;;;8.00;97.30;;;;;;5033523;28;20650;-84
2022/01/04 04:54:15;;;;;;;2.30;1.60;;;8.00;97.30;;;;;;5033351;28;20196;-84
2022/01/04 04:56:40;;;;;;;2.23;1.80;;;8.00;97.30;;;;;;5033647;28;20713;-84
2022/01/04 04:59:08;;;;;;;2.37;1.90;;;8.00;97.30;;;;;;5050901;28;20474;-84
2022/01/04 05:01:33;;;;;;;7.20;2.10;;;8.00;97.30;;;;;;5033316;28;20201;-84
2022/01/04 05:03:59;;;;;;;4.20;2.00;;;8.00;97.30;;;;;;5032414;28;21063;-84
2022/01/04 05:06:25;;;;;;;3.00;2.63;;;8.00;97.30;;;;;;5033309;28;20558;-85
2022/01/04 05:08:51;;;;;;;3.90;2.10;;;8.00;97.30;;;;;;5051005;28;20178;-83
2022/01/04 05:11:17;;;;;;;4.33;2.17;;;8.00;97.30;;;;;;5033312;28;20794;-84
2022/01/04 05:13:42;;;;;;;4.93;2.13;;;8.00;97.30;;;;;;5032947;28;20967;-85
2022/01/04 05:16:08;;;;;;;3.10;1.90;;;8.00;97.30;;;;;;5032767;28;20179;-85
2022/01/04 05:18:34;;;;;;;3.03;2.03;;;8.00;97.30;;;;;;5032803;28;20689;-84
2022/01/04 05:20:59;;;;;;;5.10;2.40;;;8.00;97.30;;;;;;5032320;28;20176;-84
2022/01/04 05:23:25;;;;;;;4.27;2.50;;;8.00;97.30;;;;;;5032657;28;20791;-84
2022/01/04 05:25:50;;;;;;;4.37;2.57;;;8.00;97.30;;;;;;5032598;28;20298;-84
2022/01/04 05:28:16;;;;;;;5.40;3.10;;;7.90;97.30;;;;;;5033039;28;20188;-84
2022/01/04 05:30:41;;;;;;;3.63;2.47;;;7.90;97.30;;;;;;5032747;28;20757;-84
2022/01/04 05:33:07;;;;;;;9.87;2.70;;;8.00;97.30;;;;;;5032714;28;20200;-84
2022/01/04 05:35:33;;;;;;;6.00;3.03;;;8.00;97.30;;;;;;5045352;28;20192;-84
2022/01/04 05:37:58;;;;;;;7.77;3.50;;;7.90;97.30;;;;;;5048687;28;20478;-84
2022/01/04 05:40:24;;;;;;;5.83;3.40;;;7.90;97.30;;;;;;5049872;28;20549;-84
2022/01/04 05:42:49;;;;;;;5.67;2.97;;;7.90;97.30;;;;;;5047965;28;20702;-82
2022/01/04 05:45:15;;;;;;;4.40;3.10;;;7.90;97.30;;;;;;5048961;28;20677;-82
2022/01/04 05:47:40;;;;;;;5.47;3.10;;;7.90;97.30;;;;;;5049172;28;20720;-83
2022/01/04 05:50:06;;;;;;;6.97;3.40;;;7.90;97.30;;;;;;5041906;28;20197;-82
2022/01/04 05:52:33;;;;;;;6.90;4.87;;;7.80;97.30;;;;;;5032648;28;20210;-84
2022/01/04 05:54:58;;;;;;;8.03;4.53;;;7.80;97.30;;;;;;5049216;28;20418;-84
2022/01/04 05:57:24;;;;;;;7.33;3.70;;;7.80;97.30;;;;;;5032241;28;20928;-84
2022/01/04 05:59:49;;;;;;;5.70;3.20;;;7.80;97.30;;;;;;5031604;28;20359;-82
2022/01/04 06:02:15;;;;;;;5.10;3.03;;;7.90;97.30;;;;;;5030774;28;20179;-84
2022/01/04 06:04:41;;;;;;;6.73;3.30;;;7.90;97.30;;;;;;5012475;28;20232;-84
2022/01/04 06:07:06;;;;;;;6.27;3.00;;;7.90;97.30;;;;;;5029924;28;20704;-82
2022/01/04 06:09:41;;;;;;;7.40;4.00;;;7.90;97.30;;;;;;5011951;28;20180;-84
2022/01/04 06:14:50;;;;;;;8.27;4.30;;;7.90;97.30;;;;;;5011673;28;20172;-84
2022/01/04 06:14:57;;;;;;;7.77;3.80;;;7.90;97.30;;;;;;5038481;28;20983;-84
2022/01/04 06:17:32;;;;;;;8.67;4.27;;;7.90;97.30;;;;;;5031226;28;20545;-84
2022/01/04 06:19:58;;;;;;;6.83;3.60;;;7.90;97.30;;;;;;5029925;28;20426;-84
2022/01/04 06:22:25;;;;;;;5.83;2.90;;;7.90;97.30;;;;;;5031068;28;20762;-84
2022/01/04 06:24:51;;;;;;;15.07;3.43;;;7.90;97.30;;;;;;5049055;28;20520;-84
2022/01/04 06:27:17;;;;;;;8.87;3.10;;;7.90;97.30;;;;;;5047018;28;20446;-84
2022/01/04 06:29:43;;;;;;;7.87;4.40;;;7.80;97.30;;;;;;5031147;28;20500;-84
2022/01/04 06:32:10;;;;;;;5.67;3.10;;;7.80;97.30;;;;;;5030589;28;20176;-84
2022/01/04 06:34:37;;;;;;;11.13;3.07;;;7.80;97.30;;;;;;5029769;28;20782;-84
2022/01/04 06:37:04;;;;;;;8.20;3.67;;;7.80;97.30;;;;;;5030328;28;20410;-83
2022/01/04 06:39:29;;;;;;;4.73;2.47;;;7.80;97.30;;;;;;5030797;28;20548;-84
2022/01/04 06:41:55;;;;;;;5.83;2.93;;;7.80;97.30;;;;;;5030327;28;20540;-84
2022/01/04 06:44:21;;;;;;;5.80;3.17;;;7.80;97.30;;;;;;5025726;28;20200;-84
2022/01/04 06:46:46;;;;;;;7.13;3.27;;;7.80;97.30;;;;;;5030133;28;20183;-84
2022/01/04 06:49:14;;;;;;;7.30;3.47;;;7.80;97.30;;;;;;5030816;28;20184;-83
2022/01/04 06:51:40;;;;;;;5.70;3.00;;;7.80;97.30;;;;;;5028007;28;20199;-84
2022/01/04 06:54:10;;;;;;;5.73;3.10;;;7.80;97.30;;;;;;5030996;28;20431;-84
2022/01/04 06:56:36;;;;;;;8.10;4.37;;;7.80;97.30;;;;;;5031536;28;20967;-84
2022/01/04 06:59:03;;;;;;;5.03;3.43;;;7.70;97.30;;;;;;5048836;28;20979;-83
2022/01/04 07:01:28;;;;;;;6.63;3.70;;;7.80;97.30;;;;;;5030553;28;20411;-83
2022/01/04 07:03:54;;;;;;;9.07;3.50;;;7.80;97.30;;;;;;5047436;28;20470;-84
2022/01/04 07:06:19;;;;;;;7.70;3.87;;;7.80;97.30;;;;;;5031470;28;20329;-84
2022/01/04 07:08:45;;;;;;;10.20;4.40;;;7.80;97.30;;;;;;5030343;28;20214;-84
2022/01/04 07:11:10;;;;;;;12.70;4.10;;;7.80;97.30;;;;;;5030458;28;20677;-84
2022/01/04 07:13:36;;;;;;;9.40;3.97;;;7.80;97.30;;;;;;5030536;28;20215;-82
2022/01/04 07:16:01;;;;;;;8.97;3.90;;;7.80;97.30;;;;;;5031507;28;20183;-82
2022/01/04 07:18:27;;;;;;;5.43;3.50;;;7.80;97.30;;;;;;5029080;28;20263;-84
2022/01/04 07:20:52;;;;;;;11.47;4.33;;;7.70;97.30;;;;;;5030859;28;20809;-84
2022/01/04 07:23:18;;;;;;;10.60;3.80;;;7.70;97.30;;;;;;5030878;28;20561;-84
2022/01/04 07:25:44;;;;;;;8.23;3.80;;;7.70;97.30;;;;;;5030567;28;20176;-82
2022/01/04 07:28:10;;;;;;;8.47;3.53;;;7.80;97.30;;;;;;5031658;28;20175;-84
2022/01/04 07:30:35;;;;;;;8.07;4.33;;;7.80;97.30;;;;;;5044255;28;20322;-84
2022/01/04 07:33:01;;;;;;;8.67;4.10;;;7.80;97.30;;;;;;5038341;28;20303;-82
2022/01/04 07:35:27;;;;;;;9.90;4.63;;;7.80;97.30;;;;;;5044156;28;20191;-83
2022/01/04 07:37:52;;;;;;;16.30;5.13;;;7.80;97.30;;;;;;5046839;28;20204;-84
2022/01/04 07:40:20;;;;;;;10.23;4.30;;;7.80;97.30;;;;;;5037319;28;20173;-84
2022/01/04 07:42:46;;;;;;;12.17;4.07;;;7.80;97.30;;;;;;5029943;28;20200;-83
2022/01/04 07:45:11;;;;;;;7.90;4.20;;;7.80;97.30;;;;;;5046109;28;20429;-85
2022/01/04 07:47:37;;;;;;;7.73;4.40;;;7.80;97.30;;;;;;5037448;28;20176;-85
2022/01/04 07:50:04;;;;;;;9.47;4.23;;;7.80;97.30;;;;;;5034655;28;20371;-84
2022/01/04 07:52:29;;;;;;;8.03;4.70;;;7.80;97.30;;;;;;5033771;28;20525;-83
2022/01/04 07:54:55;;;;;;;6.80;3.93;;;7.80;97.30;;;;;;5034468;28;20506;-81
2022/01/04 07:57:20;;;;;;;9.10;5.13;;;7.80;97.30;;;;;;5034043;28;20207;-84
2022/01/04 07:59:46;;;;;;;7.00;4.53;;;7.80;97.30;;;;;;5034037;28;20180;-82
2022/01/04 08:02:11;;;;;;;11.83;4.80;;;7.80;97.30;;;;;;5033545;28;20180;-84
2022/01/04 08:04:37;;;;;;;7.63;4.60;;;7.80;97.30;;;;;;5033848;28;20223;-84
2022/01/04 08:07:02;;;;;;;8.00;5.00;;;7.80;97.30;;;;;;5049956;28;20597;-84
2022/01/04 08:09:29;;;;;;;12.63;5.93;;;7.90;97.30;;;;;;5032371;28;20184;-84
2022/01/04 08:11:55;;;;;;;9.80;4.77;;;7.90;97.30;;;;;;5032827;28;20180;-84
2022/01/04 08:14:20;;;;;;;8.13;4.50;;;7.90;97.30;;;;;;5034437;28;20437;-84
2022/01/04 08:16:59;;;;;;;7.03;4.53;;;7.90;97.30;;;;;;5067776;28;20533;-82
2022/01/04 08:19:24;;;;;;;8.73;4.80;;;7.90;97.30;;;;;;5065541;28;20421;-85
2022/01/04 08:21:50;;;;;;;14.17;5.10;;;7.90;97.30;;;;;;5066234;28;20244;-85
2022/01/04 08:24:15;;;;;;;7.27;4.17;;;7.90;97.30;;;;;;5064903;28;20204;-85
2022/01/04 08:26:41;;;;;;;7.40;4.60;;;7.90;97.30;;;;;;5064864;28;20220;-85
2022/01/04 08:29:07;;;;;;;9.20;4.67;;;7.90;97.30;;;;;;5066473;28;20167;-84
2022/01/04 08:31:32;;;;;;;7.73;4.57;;;7.90;97.30;;;;;;5064375;28;20229;-85
2022/01/04 08:33:59;;;;;;;12.53;4.40;;;7.90;97.30;;;;;;5055028;28;20584;-85
2022/01/04 08:36:29;;;;;;;6.87;3.83;;;7.90;97.30;;;;;;5089740;22;20211;-90
2022/01/04 08:38:56;;;;;;;8.90;4.57;;;7.90;97.30;;;;;;5021909;28;20442;-89
2022/01/04 08:41:22;;;;;;;12.03;4.70;;;7.90;97.30;;;;;;5041660;28;20404;-88
2022/01/04 08:43:47;;;;;;;14.53;4.97;;;8.00;97.30;;;;;;5041486;28;20914;-88
2022/01/04 08:46:13;;;;;;;8.77;5.20;;;8.00;97.30;;;;;;5042300;28;20187;-89
2022/01/04 08:48:39;;;;;;;13.17;5.63;;;8.00;97.30;;;;;;5042661;28;20646;-90
2022/01/04 08:51:04;;;;;;;12.97;5.13;;;8.00;97.30;;;;;;5042580;28;20653;-89
2022/01/04 08:53:30;;;;;;;9.93;5.80;;;7.90;97.30;;;;;;5040550;28;20556;-89
2022/01/04 08:56:01;;;;;;;10.63;5.07;;;7.90;97.30;;;;;;5042690;28;20679;-89
2022/01/04 08:58:27;;;;;;;7.73;4.80;;;7.90;97.30;;;;;;5042391;28;20212;-89
2022/01/04 09:00:52;;;;;;;11.20;5.60;;;7.90;97.30;;;;;;5030050;28;20427;-89
2022/01/04 09:03:18;;;;;;;12.90;4.60;;;7.90;97.30;;;;;;5025548;28;20786;-90
2022/01/04 09:05:43;;;;;;;10.10;5.30;;;7.90;97.30;;;;;;5025775;28;20208;-89
2022/01/04 09:08:10;;;;;;;13.83;5.07;;;8.00;97.30;;;;;;5041276;28;20205;-88
2022/01/04 09:10:36;;;;;;;9.03;5.43;;;8.00;97.30;;;;;;5025239;28;20192;-88
2022/01/04 09:13:12;;;;;;;10.30;5.20;;;8.00;97.30;;;;;;5025680;28;20871;-89
2022/01/04 09:20:51;;;;;;;10.50;5.23;;;7.90;97.30;;;;;;5028774;28;20188;-88
2022/01/04 09:23:18;;;;;;;10.37;4.63;;;8.00;97.30;;;;;;5043091;28;20408;-88
2022/01/04 09:25:49;;;;;;;9.70;5.33;;;8.00;97.30;;;;;;5027209;28;20553;-88
2022/01/04 09:28:15;;;;;;;10.90;6.97;;;8.00;97.30;;;;;;5014981;28;20436;-89
2022/01/04 09:30:42;;;;;;;8.13;4.33;;;8.10;97.30;;;;;;5030671;28;21119;-89
2022/01/04 09:33:08;;;;;;;7.77;4.70;;;8.10;97.30;;;;;;5030484;28;20474;-89
2022/01/04 09:35:36;;;;;;;5.97;3.40;;;8.20;97.30;;;;;;5029891;28;20483;-90
2022/01/04 09:38:02;;;;;;;6.37;3.00;;;8.20;97.30;;;;;;5030097;28;20233;-89
2022/01/04 09:40:28;;;;;;;9.47;3.47;;;8.10;97.30;;;;;;5013342;28;20504;-89
2022/01/04 09:42:54;;;;;;;8.13;3.57;;;8.10;97.30;;;;;;5031067;28;20443;-89
2022/01/04 09:45:20;;;;;;;7.47;3.13;;;8.10;97.30;;;;;;5031005;28;20177;-88
2022/01/04 09:47:46;;;;;;;3.60;3.00;;;8.10;97.30;;;;;;5015460;28;20428;-89
2022/01/04 09:50:12;;;;;;;3.60;2.27;;;8.00;97.30;;;;;;5030242;28;20203;-88
2022/01/04 09:52:43;;;;;;;5.00;2.70;;;8.10;97.30;;;;;;5015158;28;20220;-88
2022/01/04 09:55:10;;;;;;;6.20;2.80;;;8.00;97.30;;;;;;5030708;28;20694;-89
2022/01/04 09:57:35;;;;;;;4.80;2.70;;;8.10;97.30;;;;;;5030576;28;20432;-88
2022/01/04 10:00:03;;;;;;;4.93;2.60;;;8.10;97.30;;;;;;5030220;28;20412;-88
2022/01/04 10:02:30;;;;;;;5.77;2.53;;;8.10;97.30;;;;;;5030365;28;20764;-89
2022/01/04 10:05:13;;;;;;;7.10;2.30;;;8.20;97.30;;;;;;5030391;28;21081;-89
2022/01/04 10:07:39;;;;;;;7.77;2.30;;;8.20;97.30;;;;;;5030145;28;20821;-88
2022/01/04 10:10:08;;;;;;;5.23;2.70;;;8.20;97.30;;;;;;5030177;28;20424;-88
2022/01/04 10:12:48;;;;;;;9.83;2.93;;;8.20;97.30;;;;;;5030216;28;20424;-88
2022/01/04 10:15:29;;;;;;;4.27;2.70;;;8.20;97.30;;;;;;5013310;28;20545;-89
2022/01/04 10:17:56;;;;;;;5.10;2.77;;;8.30;97.30;;;;;;5014124;28;20955;-86
2022/01/04 10:20:22;;;;;;;3.10;2.70;;;8.30;97.30;;;;;;5013961;28;20420;-89
2022/01/04 10:22:50;;;;;;;5.47;2.93;;;8.30;97.30;;;;;;5028755;28;20488;-88
2022/01/04 10:25:19;;;;;;;5.10;3.00;;;8.40;97.30;;;;;;5041989;28;20463;-89
2022/01/04 10:27:48;;;;;;;6.20;2.50;;;8.40;97.30;;;;;;5031721;28;20467;-89
2022/01/04 10:30:28;;;;;;;6.17;2.90;;;8.30;97.30;;;;;;5019117;28;20452;-88
2022/01/04 10:32:58;;;;;;;4.53;2.90;;;8.40;97.30;;;;;;5014576;28;20912;-89
2022/01/04 10:35:43;;;;;;;6.67;3.50;;;8.40;97.30;;;;;;5013371;28;21027;-88
2022/01/04 10:38:17;;;;;;;7.33;3.23;;;8.40;97.30;;;;;;5012517;28;21195;-89
2022/01/04 10:40:49;;;;;;;5.80;3.30;;;8.30;97.30;;;;;;5029042;28;20419;-89
2022/01/04 10:43:20;;;;;;;7.70;4.93;;;8.30;97.30;;;;;;5012519;28;20420;-89
2022/01/04 10:45:47;;;;;;;7.53;4.07;;;8.30;97.30;;;;;;5012699;28;20413;-88
2022/01/04 10:48:22;;;;;;;5.00;3.00;;;8.30;97.30;;;;;;5013722;28;20456;-88
2022/01/04 10:50:51;;;;;;;8.47;3.67;;;8.30;97.30;;;;;;5012659;28;20411;-88
2022/01/04 10:53:39;;;;;;;9.40;2.60;;;8.20;97.30;;;;;;5011086;28;20423;-88
2022/01/04 10:56:09;;;;;;;3.90;2.60;;;8.20;97.30;;;;;;5012920;28;20471;-89
2022/01/04 10:58:41;;;;;;;3.40;2.10;;;8.20;97.30;;;;;;5012866;28;20447;-88
2022/01/04 11:01:13;;;;;;;5.33;2.30;;;8.10;97.30;;;;;;5012790;28;20412;-89
2022/01/04 11:03:42;;;;;;;4.03;2.47;;;8.10;97.30;;;;;;5012994;28;20427;-89
2022/01/04 11:06:26;;;;;;;6.43;2.77;;;8.20;97.30;;;;;;5012755;28;20416;-89
2022/01/04 11:08:51;;;;;;;3.87;2.70;;;8.20;97.30;;;;;;5012187;28;20945;-88
2022/01/04 11:11:17;;;;;;;4.80;2.87;;;8.20;97.30;;;;;;5029643;28;20550;-89
2022/01/04 11:13:43;;;;;;;3.10;2.10;;;8.20;97.30;;;;;;5028046;28;20196;-89
2022/01/04 11:16:09;;;;;;;6.10;2.00;;;8.20;97.30;;;;;;5028656;28;20675;-90
2022/01/04 11:18:36;;;;;;;3.97;2.13;;;8.20;97.30;;;;;;5028879;28;20575;-89
2022/01/04 11:21:04;;;;;;;4.73;2.33;;;8.20;97.30;;;;;;5029059;28;20184;-88
2022/01/04 11:23:32;;;;;;;2.53;1.87;;;8.20;97.30;;;;;;5013907;28;20400;-88
2022/01/04 11:26:00;;;;;;;5.23;2.60;;;8.20;97.30;;;;;;5028472;28;20416;-89
2022/01/04 11:28:26;;;;;;;5.03;2.20;;;8.20;97.30;;;;;;5028315;28;20613;-88
2022/01/04 11:31:21;;;;;;;5.80;2.67;;;8.30;97.30;;;;;;5011822;28;20431;-88
2022/01/04 11:33:56;;;;;;;4.93;3.30;;;8.30;97.30;;;;;;5011405;28;20931;-88
2022/01/04 11:36:23;;;;;;;6.57;2.90;;;8.30;97.30;;;;;;5012917;28;20948;-88
2022/01/04 11:38:49;;;;;;;5.83;2.97;;;8.30;97.30;;;;;;5028936;28;20442;-89
2022/01/04 11:41:25;;;;;;;5.57;3.33;;;8.30;97.30;;;;;;5029168;28;20765;-89
2022/01/04 11:43:51;;;;;;;4.97;3.23;;;8.20;97.30;;;;;;5012657;28;20170;-89
2022/01/04 11:46:35;;;;;;;6.23;3.17;;;8.20;97.30;;;;;;5029717;28;20432;-89
2022/01/04 11:49:12;;;;;;;8.67;4.00;;;8.10;97.30;;;;;;5030096;28;20447;-89
2022/01/04 11:51:40;;;;;;;8.03;4.10;;;8.10;97.30;;;;;;5028468;28;20957;-89
2022/01/04 11:54:29;;;;;;;9.53;4.00;;;8.10;97.30;;;;;;5029016;28;20507;-88
2022/01/04 11:57:15;;;;;;;6.83;3.57;;;8.00;97.30;;;;;;5028884;28;20967;-88
2022/01/04 11:59:46;;;;;;;7.33;3.90;;;8.00;97.30;;;;;;5023939;28;20515;-89
2022/01/04 12:02:24;;;;;;;10.23;4.30;;;8.00;97.30;;;;;;5026802;28;20416;-89
2022/01/04 12:05:00;;;;;;;7.37;4.40;;;8.00;97.30;;;;;;5001533;28;20420;-89
2022/01/04 12:07:38;;;;;;;4.23;2.97;;;7.90;97.30;;;;;;5021479;28;20469;-89
2022/01/04 12:10:22;;;;;;;4.90;2.83;;;7.90;97.30;;;;;;5026292;28;20500;-88
2022/01/04 12:13:18;;;;;;;6.17;3.20;;;7.90;97.30;;;;;;5026648;28;20447;-89
2022/01/04 12:15:49;;;;;;;4.20;2.80;;;7.90;97.30;;;;;;5010556;28;20455;-88
2022/01/04 12:18:23;;;;;;;5.10;3.07;;;7.90;97.30;;;;;;5009619;28;20440;-88
2022/01/04 12:20:58;;;;;;;4.30;3.20;;;7.90;97.30;;;;;;5009080;28;20423;-89
2022/01/04 12:23:24;;;;;;;6.77;3.47;;;7.90;97.30;;;;;;5008977;28;20598;-88
2022/01/04 12:26:05;;;;;;;8.37;3.30;;;7.90;97.30;;;;;;5009220;28;20531;-88
2022/01/04 12:28:36;;;;;;;5.23;2.80;;;8.00;97.30;;;;;;5008674;28;20450;-89
2022/01/04 12:31:28;;;;;;;7.67;3.20;;;8.00;97.30;;;;;;5008311;28;20982;-88
2022/01/04 12:33:56;;;;;;;4.30;2.77;;;8.00;97.30;;;;;;5025804;28;20424;-88
2022/01/04 12:36:42;;;;;;;4.33;2.93;;;8.10;97.30;;;;;;5025582;28;20451;-88
2022/01/04 12:39:10;;;;;;;4.80;3.27;;;8.10;97.30;;;;;;5026542;28;20442;-89
2022/01/04 12:41:37;;;;;;;8.00;3.10;;;8.10;97.30;;;;;;5026951;28;20792;-88
2022/01/04 12:44:04;;;;;;;3.30;2.37;;;8.10;97.30;;;;;;5026669;28;20435;-89
2022/01/04 12:46:32;;;;;;;4.77;2.97;;;8.10;97.30;;;;;;5011286;28;20707;-89
2022/01/04 12:49:01;;;;;;;6.97;3.00;;;8.10;97.30;;;;;;5026681;28;20419;-89
2022/01/04 12:51:36;;;;;;;7.87;3.30;;;8.10;97.30;;;;;;5026675;28;20502;-89
2022/01/04 12:54:12;;;;;;;6.57;2.97;;;8.10;97.30;;;;;;5026430;28;20416;-89
2022/01/04 12:56:44;;;;;;;8.03;2.90;;;8.10;97.30;;;;;;5026211;28;21071;-89
2022/01/04 12:59:18;;;;;;;7.20;3.10;;;8.10;97.30;;;;;;5026942;28;20474;-89
2022/01/04 13:01:48;;;;;;;6.10;3.27;;;8.00;97.30;;;;;;5027289;28;20416;-91
2022/01/04 13:04:28;;;;;;;7.30;3.50;;;8.00;97.30;;;;;;5030739;28;20412;-89
2022/01/04 13:06:59;;;;;;;5.10;2.77;;;7.90;97.30;;;;;;5013684;28;20451;-89